Time;durP1;ratioP1;P1;durP2;ratioP2;P2;SDS_P1;SDS_P2;PMS_P1;PMS_P2;Temp;Humidity;BMP_temperature;BMP_pressure;BME280_temperature;BME280_humidity;BME280_pressure;Samples;Min_cycle;Max_cycle;Signal;HPM_P1;HPM_P2
2023/03/16 00:02:10;;;;;;;6.55;4.75;;;4.30;99.90;;;4.04;nan;101139.75;4970679;28;20240;-66
2023/03/16 00:04:37;;;;;;;4.25;3.78;;;4.30;99.90;;;3.98;nan;101146.00;4978346;28;20204;-67
2023/03/16 00:07:06;;;;;;;6.53;4.30;;;4.20;99.90;;;3.94;nan;101139.25;4968603;28;20212;-66
2023/03/16 00:09:35;;;;;;;5.85;4.10;;;4.10;99.90;;;3.91;nan;101144.53;4971285;28;20650;-67
2023/03/16 00:12:02;;;;;;;4.40;4.00;;;4.10;99.90;;;3.86;nan;101142.13;4955667;28;20232;-67
2023/03/16 00:14:31;;;;;;;4.97;4.05;;;4.10;99.90;;;3.80;nan;101139.75;4963453;28;20262;-67
2023/03/16 00:16:58;;;;;;;8.07;4.40;;;4.00;99.90;;;3.76;nan;101135.63;4970214;28;20283;-67
2023/03/16 00:19:25;;;;;;;4.88;3.08;;;4.00;99.90;;;3.76;nan;101137.34;4972052;28;20211;-67
2023/03/16 00:21:52;;;;;;;5.95;4.05;;;4.00;99.90;;;3.74;nan;101145.16;4972587;28;20220;-66
2023/03/16 00:24:19;;;;;;;5.88;4.50;;;3.90;99.90;;;3.77;nan;101145.03;4973828;28;20211;-67
2023/03/16 00:26:47;;;;;;;8.65;5.55;;;4.00;99.90;;;3.71;nan;101150.41;4971922;28;20207;-67
2023/03/16 00:29:14;;;;;;;7.93;4.68;;;3.90;99.90;;;3.67;nan;101145.41;4972243;28;20562;-66
2023/03/16 00:31:42;;;;;;;6.50;4.43;;;3.90;99.90;;;3.61;nan;101151.63;4971730;28;20232;-67
2023/03/16 00:34:10;;;;;;;4.95;3.35;;;3.80;99.90;;;3.61;nan;101158.53;4967253;28;20614;-66
2023/03/16 00:36:38;;;;;;;4.70;3.50;;;3.80;99.90;;;3.58;nan;101153.47;4968162;28;20205;-66
2023/03/16 00:39:05;;;;;;;4.80;3.47;;;3.80;99.90;;;3.54;nan;101146.72;4973471;28;20204;-66
2023/03/16 00:41:36;;;;;;;5.43;3.47;;;3.80;99.90;;;3.51;nan;101146.84;4972442;28;20234;-67
2023/03/16 00:44:05;;;;;;;5.85;4.07;;;3.70;99.90;;;3.49;nan;101146.06;4972746;28;20218;-67
2023/03/16 00:46:32;;;;;;;4.55;3.78;;;3.70;99.90;;;3.46;nan;101147.00;4965250;28;20272;-67
2023/03/16 00:48:59;;;;;;;4.80;3.72;;;3.70;99.90;;;3.46;nan;101141.84;4965646;28;20204;-67
2023/03/16 00:51:26;;;;;;;4.60;3.45;;;3.70;99.90;;;3.45;nan;101139.34;4959190;28;20695;-67
2023/03/16 00:53:52;;;;;;;4.68;3.92;;;3.70;99.90;;;3.43;nan;101133.38;4971926;28;20208;-67
2023/03/16 00:56:20;;;;;;;4.60;3.17;;;3.70;99.90;;;3.42;nan;101132.53;4960660;28;20668;-67
2023/03/16 00:58:47;;;;;;;3.75;2.40;;;3.70;99.90;;;3.38;nan;101135.28;4974194;28;20670;-66
2023/03/16 01:03:54;;;;;;;4.05;2.88;;;3.60;99.90;;;3.25;nan;101127.09;4991983;28;20219;-65
2023/03/16 01:06:21;;;;;;;3.95;3.65;;;3.50;99.90;;;3.24;nan;101133.16;4979683;28;20199;-67
2023/03/16 01:08:48;;;;;;;3.75;3.30;;;3.50;99.90;;;3.21;nan;101122.09;4992820;28;20254;-65
2023/03/16 01:11:19;;;;;;;4.75;3.70;;;3.40;99.90;;;3.21;nan;101122.09;4992205;28;20278;-64
2023/03/16 01:13:49;;;;;;;4.60;2.85;;;3.40;99.90;;;3.16;nan;101114.53;4973813;28;20204;-67
2023/03/16 01:16:17;;;;;;;3.47;2.65;;;3.40;99.90;;;3.14;nan;101117.16;4972972;28;20212;-67
2023/03/16 01:18:46;;;;;;;3.33;2.50;;;3.40;99.90;;;3.10;nan;101115.59;4972330;28;20205;-67
2023/03/16 01:21:13;;;;;;;4.90;3.80;;;3.30;99.90;;;3.07;nan;101113.09;4973392;28;20669;-65
2023/03/16 01:23:43;;;;;;;4.78;3.70;;;3.30;99.90;;;3.03;nan;101116.66;4947490;28;20733;-65
2023/03/16 01:26:10;;;;;;;5.22;3.60;;;3.30;99.90;;;3.03;nan;101124.41;4942403;28;20411;-67
2023/03/16 01:28:37;;;;;;;6.65;4.45;;;3.30;99.90;;;3.01;nan;101123.63;4936467;29;20205;-65
2023/03/16 01:31:08;;;;;;;4.65;3.28;;;3.20;99.90;;;3.01;nan;101115.03;4962578;28;20228;-65
2023/03/16 01:33:36;;;;;;;5.43;2.75;;;3.20;99.90;;;3.01;nan;101115.88;4956137;28;20253;-67
2023/03/16 01:36:10;;;;;;;3.80;3.25;;;3.20;99.90;;;2.99;nan;101117.66;4955366;28;20204;-66
2023/03/16 01:38:37;;;;;;;4.60;3.03;;;3.20;99.90;;;3.00;nan;101121.91;4973475;28;20208;-67
2023/03/16 01:41:05;;;;;;;6.80;3.60;;;3.20;99.90;;;2.95;nan;101116.09;4955468;28;20214;-66
2023/03/16 01:43:36;;;;;;;6.30;3.75;;;3.20;99.90;;;2.96;nan;101112.59;4972440;28;20297;-65
2023/03/16 01:46:16;;;;;;;3.10;2.35;;;3.20;99.90;;;2.96;nan;101114.38;4955220;28;20212;-67
2023/03/16 01:49:11;;;;;;;2.28;2.05;;;3.20;99.90;;;2.94;nan;101109.22;4972135;28;20592;-67
2023/03/16 01:51:56;;;;;;;4.22;3.08;;;3.20;99.90;;;2.90;nan;101102.50;4971756;28;20732;-67
2023/03/16 01:54:36;;;;;;;3.40;2.40;;;3.10;99.90;;;2.86;nan;101102.66;4954134;28;20271;-67
2023/03/16 01:57:16;;;;;;;1.98;1.88;;;3.10;99.90;;;2.83;nan;101100.19;4956341;28;20211;-67
2023/03/16 01:59:58;;;;;;;2.38;2.20;;;3.10;99.90;;;2.77;nan;101092.66;4972278;28;20669;-68
2023/03/16 02:02:30;;;;;;;5.78;3.90;;;3.00;99.90;;;2.71;nan;101091.09;4972364;28;20721;-67
2023/03/16 02:05:05;;;;;;;2.95;2.65;;;3.00;99.90;;;2.70;nan;101102.31;4955363;28;20208;-67
2023/03/16 02:07:42;;;;;;;3.08;2.78;;;2.90;99.90;;;2.71;nan;101098.84;4954412;28;20212;-67
2023/03/16 02:10:12;;;;;;;4.35;3.17;;;3.00;99.90;;;2.72;nan;101103.13;4955154;28;20214;-67
2023/03/16 02:12:39;;;;;;;5.90;3.38;;;3.00;99.90;;;2.70;nan;101080.88;4955507;28;20615;-66
2023/03/16 02:15:07;;;;;;;2.78;2.55;;;3.00;99.90;;;2.68;nan;101080.91;4972001;28;20208;-66
2023/03/16 02:17:35;;;;;;;6.13;3.95;;;2.90;99.90;;;2.68;nan;101080.91;4972613;28;20210;-66
2023/03/16 02:20:35;;;;;;;3.90;3.60;;;2.90;99.90;;;2.69;nan;101074.00;4971450;28;20670;-66
2023/03/16 02:23:05;;;;;;;5.90;3.75;;;2.90;99.90;;;2.68;nan;101069.75;4935801;29;20733;-66
2023/03/16 02:26:10;;;;;;;3.20;3.00;;;2.90;99.90;;;2.63;nan;101056.19;4966046;28;20238;-67
2023/03/16 02:29:31;;;;;;;3.50;3.20;;;2.90;99.90;;;2.67;nan;101062.91;4954703;28;20218;-66
2023/03/16 02:31:58;;;;;;;6.40;3.72;;;2.90;99.90;;;2.65;nan;101057.81;4952165;28;20236;-67
2023/03/16 02:34:27;;;;;;;6.25;2.80;;;2.90;99.90;;;2.61;nan;101058.81;4951806;28;20733;-66
2023/03/16 02:36:55;;;;;;;7.38;3.80;;;2.90;99.90;;;2.60;nan;101046.81;4967025;28;20208;-69
2023/03/16 02:39:22;;;;;;;4.35;2.17;;;2.80;99.90;;;2.58;nan;101053.75;4951473;29;20204;-67
2023/03/16 02:41:50;;;;;;;5.40;3.80;;;2.80;99.90;;;2.58;nan;101065.81;4970435;28;20228;-66
2023/03/16 02:44:27;;;;;;;3.95;3.47;;;2.80;99.90;;;2.53;nan;101055.66;4971328;28;20218;-66
2023/03/16 02:47:01;;;;;;;5.93;3.63;;;2.80;99.90;;;2.52;nan;101053.97;4954180;28;20266;-66
2023/03/16 02:49:44;;;;;;;5.88;3.97;;;2.80;99.90;;;2.53;nan;101060.81;4953894;28;20210;-67
2023/03/16 02:52:12;;;;;;;5.72;3.63;;;2.80;99.90;;;2.51;nan;101057.44;4971850;28;20235;-67
2023/03/16 02:54:38;;;;;;;4.18;3.45;;;2.80;99.90;;;2.56;nan;101060.69;4953809;28;20203;-67
2023/03/16 02:57:05;;;;;;;6.38;4.03;;;2.80;99.90;;;2.60;nan;101051.97;4955821;28;20211;-66
2023/03/16 02:59:32;;;;;;;2.80;2.45;;;2.80;99.90;;;2.57;nan;101039.19;4970836;28;20578;-67
2023/03/16 03:02:00;;;;;;;3.95;2.42;;;2.80;99.90;;;2.55;nan;101032.41;4972368;28;20243;-67
2023/03/16 03:04:27;;;;;;;5.40;3.05;;;2.80;99.90;;;2.49;nan;101030.88;4970578;28;20212;-67
2023/03/16 03:06:54;;;;;;;4.13;3.13;;;2.70;99.90;;;2.48;nan;101039.50;4971485;28;20669;-67
2023/03/16 03:09:21;;;;;;;7.40;3.60;;;2.70;99.90;;;2.48;nan;101036.91;4970643;28;20212;-66
2023/03/16 03:11:47;;;;;;;5.90;3.88;;;2.70;99.90;;;2.53;nan;101029.03;4972540;28;20235;-68
2023/03/16 03:14:15;;;;;;;3.88;3.40;;;2.80;99.90;;;2.57;nan;101025.47;4971279;28;20634;-68
2023/03/16 03:16:45;;;;;;;6.90;4.05;;;2.80;99.90;;;2.57;nan;101031.47;4971441;28;20693;-67
2023/03/16 03:19:12;;;;;;;6.05;3.35;;;2.80;99.90;;;2.58;nan;101038.28;4952516;28;20215;-67
2023/03/16 03:21:40;;;;;;;5.10;3.63;;;2.80;99.90;;;2.59;nan;101029.69;4971760;28;20223;-67
2023/03/16 03:24:08;;;;;;;2.67;2.15;;;2.80;99.90;;;2.61;nan;101027.06;4970701;28;20612;-69
2023/03/16 03:26:39;;;;;;;2.67;2.35;;;2.90;99.90;;;2.62;nan;101021.03;4970224;28;20215;-67
2023/03/16 03:29:05;;;;;;;4.10;2.58;;;2.90;99.90;;;2.60;nan;101021.06;4971632;28;20708;-67
2023/03/16 03:31:32;;;;;;;3.00;2.60;;;2.80;99.90;;;2.56;nan;101019.47;4970328;28;20223;-67
2023/03/16 03:34:05;;;;;;;5.55;3.47;;;2.80;99.90;;;2.55;nan;101017.81;4954507;28;20200;-67
2023/03/16 03:36:33;;;;;;;3.30;2.90;;;2.80;99.90;;;2.54;nan;101023.84;4970120;28;20196;-67
2023/03/16 03:39:03;;;;;;;3.88;3.58;;;2.80;99.90;;;2.51;nan;101017.94;4971591;28;20219;-67
2023/03/16 03:41:32;;;;;;;3.53;3.15;;;2.80;99.90;;;2.49;nan;101023.16;4970453;28;20638;-67
2023/03/16 03:43:59;;;;;;;5.03;3.35;;;2.70;99.90;;;2.47;nan;101016.38;4972031;28;20270;-67
2023/03/16 03:46:26;;;;;;;3.25;2.45;;;2.70;99.90;;;2.47;nan;101016.38;4969849;28;20676;-67
2023/03/16 03:48:53;;;;;;;5.05;3.72;;;2.70;99.90;;;2.44;nan;101012.16;4970405;28;20513;-67
2023/03/16 03:51:20;;;;;;;4.85;3.80;;;2.70;99.90;;;2.40;nan;101009.72;4970977;28;20235;-67
2023/03/16 03:53:47;;;;;;;4.35;3.50;;;2.70;99.90;;;2.41;nan;101014.81;4971099;28;20235;-69
2023/03/16 03:56:14;;;;;;;5.25;3.80;;;2.70;99.90;;;2.39;nan;101014.03;4970288;28;20708;-67
2023/03/16 03:58:41;;;;;;;4.78;3.50;;;2.60;99.90;;;2.42;nan;101018.25;4970708;28;20220;-68
2023/03/16 04:01:08;;;;;;;6.28;4.25;;;2.70;99.90;;;2.43;nan;101007.88;4970708;28;20241;-67
2023/03/16 04:03:35;;;;;;;5.22;4.30;;;2.70;99.90;;;2.43;nan;101013.03;4971359;28;20339;-67
2023/03/16 04:06:02;;;;;;;3.70;3.17;;;2.70;99.90;;;2.43;nan;101007.06;4970180;28;20747;-68
2023/03/16 04:08:29;;;;;;;3.72;3.05;;;2.70;99.90;;;2.41;nan;101009.66;4970563;28;20208;-66
2023/03/16 04:10:56;;;;;;;5.85;4.03;;;2.70;99.90;;;2.45;nan;101015.59;4970313;28;20204;-67
2023/03/16 04:13:23;;;;;;;3.80;3.50;;;2.70;99.90;;;2.43;nan;101007.06;4970247;28;20228;-66
2023/03/16 04:16:04;;;;;;;2.75;2.53;;;2.70;99.90;;;2.43;nan;101007.88;4969752;28;20373;-66
2023/03/16 04:18:37;;;;;;;3.00;2.70;;;2.70;99.90;;;2.43;nan;101007.88;4968702;28;20208;-66
2023/03/16 04:21:05;;;;;;;2.35;2.05;;;2.70;99.90;;;2.43;nan;101018.19;4969689;28;20680;-67
2023/03/16 04:23:33;;;;;;;3.28;2.42;;;2.70;99.90;;;2.44;nan;101022.47;4969224;28;20253;-68
2023/03/16 04:26:01;;;;;;;5.03;3.55;;;2.70;99.90;;;2.41;nan;101019.97;4948542;28;20706;-67
2023/03/16 04:28:28;;;;;;;2.10;1.70;;;2.70;99.90;;;2.38;nan;101022.66;4966385;28;20204;-67
2023/03/16 04:30:55;;;;;;;1.95;1.58;;;2.70;99.90;;;2.36;nan;101032.16;4973672;28;20207;-67
2023/03/16 04:33:22;;;;;;;4.15;2.15;;;2.60;99.90;;;2.35;nan;101036.47;4973827;28;20718;-66
2023/03/16 04:35:49;;;;;;;4.03;2.67;;;2.60;99.90;;;2.30;nan;101033.19;4973831;28;20200;-67
2023/03/16 04:38:16;;;;;;;5.22;3.65;;;2.60;99.90;;;2.29;nan;101028.94;4973319;28;20633;-67
2023/03/16 04:40:43;;;;;;;3.78;3.38;;;2.60;99.90;;;2.31;nan;101018.59;4973718;28;20266;-67
2023/03/16 04:43:09;;;;;;;5.40;3.28;;;2.60;99.90;;;2.32;nan;101020.28;4973811;28;20725;-66
2023/03/16 04:45:36;;;;;;;6.57;4.20;;;2.60;99.90;;;2.34;nan;101015.94;4973554;28;20216;-66
2023/03/16 04:48:04;;;;;;;5.10;3.78;;;2.60;99.90;;;2.39;nan;101016.59;4973600;28;20222;-67
2023/03/16 04:50:31;;;;;;;5.50;4.38;;;2.70;99.90;;;2.38;nan;101014.94;4974356;28;20219;-68
2023/03/16 04:52:58;;;;;;;4.93;3.65;;;2.60;99.90;;;2.34;nan;101009.03;4973309;28;20232;-67
2023/03/16 04:55:25;;;;;;;6.22;4.20;;;2.60;99.90;;;2.27;nan;101007.56;4973506;28;20201;-66
2023/03/16 04:57:52;;;;;;;5.45;4.45;;;2.60;99.90;;;2.26;nan;101012.72;4967918;28;20200;-66
2023/03/16 05:00:20;;;;;;;7.53;4.05;;;2.50;99.90;;;2.28;nan;101003.22;4972403;28;20212;-67
2023/03/16 05:02:47;;;;;;;7.70;4.95;;;2.50;99.90;;;2.29;nan;101007.50;4972938;28;20240;-66
2023/03/16 05:05:14;;;;;;;7.78;4.40;;;2.60;99.90;;;2.27;nan;101001.56;4974001;28;20218;-67
2023/03/16 05:07:42;;;;;;;2.53;2.35;;;2.50;99.90;;;2.22;nan;101011.16;4973004;28;20204;-67
2023/03/16 05:10:14;;;;;;;3.25;1.42;;;2.50;99.90;;;2.12;nan;100997.75;4973379;28;20208;-66
2023/03/16 05:12:41;;;;;;;10.68;3.78;;;2.40;99.90;;;2.08;nan;100992.75;4972516;28;20242;-68
2023/03/16 05:15:09;;;;;;;4.47;3.45;;;2.40;99.90;;;2.04;nan;100986.84;4972971;28;20835;-66
2023/03/16 05:17:36;;;;;;;5.07;3.58;;;2.30;99.90;;;2.05;nan;100995.38;4972805;28;20629;-66
2023/03/16 05:20:07;;;;;;;7.35;3.97;;;2.30;99.90;;;2.06;nan;100995.38;4955646;28;20274;-68
2023/03/16 05:22:34;;;;;;;5.75;4.13;;;2.30;99.90;;;2.13;nan;100996.03;4973263;28;20251;-66
2023/03/16 05:25:03;;;;;;;4.93;4.20;;;2.40;99.90;;;2.14;nan;100985.66;4973765;28;20259;-66
2023/03/16 05:27:30;;;;;;;6.95;4.78;;;2.40;99.90;;;2.16;nan;100996.75;4972688;28;20216;-67
2023/03/16 05:29:57;;;;;;;6.93;5.43;;;2.40;99.90;;;2.20;nan;100990.63;4954899;28;20215;-67
2023/03/16 05:32:24;;;;;;;10.43;5.82;;;2.50;99.90;;;2.24;nan;100996.50;4972217;28;20238;-69
2023/03/16 05:34:52;;;;;;;16.25;6.28;;;2.50;99.90;;;2.29;nan;100995.47;4955847;28;20200;-67
2023/03/16 05:37:19;;;;;;;8.88;5.28;;;2.50;99.90;;;2.30;nan;100986.00;4973240;28;20219;-68
2023/03/16 05:39:46;;;;;;;7.45;4.90;;;2.60;99.90;;;2.31;nan;100987.69;4955681;28;20196;-67
2023/03/16 05:42:13;;;;;;;8.77;5.82;;;2.60;99.90;;;2.36;nan;100988.41;4964502;28;20227;-65
2023/03/16 05:44:40;;;;;;;7.18;4.35;;;2.60;99.90;;;2.38;nan;100992.56;4968184;28;20219;-67
2023/03/16 05:47:07;;;;;;;6.75;5.22;;;2.60;99.90;;;2.42;nan;100990.75;4972484;28;20219;-66
2023/03/16 05:49:34;;;;;;;6.70;4.57;;;2.60;99.90;;;2.46;nan;100984.63;4971862;28;20216;-67
2023/03/16 05:52:03;;;;;;;6.50;4.05;;;2.70;99.90;;;2.51;nan;100979.31;4972041;28;20232;-66
2023/03/16 05:54:30;;;;;;;7.57;5.20;;;2.80;99.90;;;2.56;nan;100983.41;4972421;28;20207;-66
2023/03/16 05:56:56;;;;;;;10.13;7.53;;;2.80;99.90;;;2.68;nan;100972.72;4971113;28;20212;-67
2023/03/16 05:59:23;;;;;;;11.98;7.00;;;2.90;99.90;;;2.78;nan;100963.75;4972416;28;20706;-67
2023/03/16 06:01:50;;;;;;;10.27;6.72;;;3.00;99.90;;;2.97;nan;100962.22;4970501;28;20726;-68
2023/03/16 06:04:17;;;;;;;10.70;6.90;;;3.10;99.90;;;3.17;nan;100960.66;4958200;28;20217;-65
2023/03/16 06:06:44;;;;;;;10.93;6.70;;;3.30;99.90;;;3.33;nan;100961.78;4963701;28;20287;-66
2023/03/16 06:09:11;;;;;;;9.85;5.95;;;3.50;99.90;;;3.47;nan;100959.53;4971944;28;20215;-66
2023/03/16 06:11:38;;;;;;;8.32;5.88;;;3.60;99.90;;;3.52;nan;100966.19;4971330;28;20208;-66
2023/03/16 06:14:05;;;;;;;15.02;5.80;;;3.70;99.90;;;3.50;nan;100957.66;4968409;28;20214;-67
2023/03/16 06:16:32;;;;;;;7.97;5.28;;;3.70;99.90;;;3.48;nan;100958.63;4959104;28;20278;-66
2023/03/16 06:18:59;;;;;;;6.60;4.57;;;3.70;99.90;;;3.52;nan;100968.78;4963084;28;20200;-67
2023/03/16 06:21:26;;;;;;;3.70;3.35;;;3.70;99.90;;;3.62;nan;100969.28;4971431;28;20204;-67
2023/03/16 06:23:54;;;;;;;4.60;3.50;;;3.80;99.90;;;3.75;nan;100981.63;4972366;28;20212;-67
2023/03/16 06:26:21;;;;;;;8.80;5.78;;;3.90;99.90;;;3.83;nan;100984.75;4971766;28;20212;-66
2023/03/16 06:28:48;;;;;;;8.32;5.93;;;4.00;99.90;;;3.95;nan;100978.28;4970420;28;20266;-66
2023/03/16 06:31:15;;;;;;;9.35;5.70;;;4.20;99.90;;;4.17;nan;100976.56;4971201;28;20207;-67
2023/03/16 06:33:42;;;;;;;5.20;4.72;;;4.30;99.90;;;4.44;nan;100978.00;4970672;28;20228;-66
2023/03/16 06:36:10;;;;;;;7.30;5.68;;;4.60;99.90;;;4.78;nan;100976.56;4971903;28;20196;-67
2023/03/16 06:38:37;;;;;;;9.55;6.68;;;4.90;99.90;;;5.29;nan;100982.06;4968661;28;20207;-65
2023/03/16 06:41:04;;;;;;;7.13;5.50;;;5.40;99.90;;;5.90;nan;100980.16;4952841;29;20263;-66
2023/03/16 06:43:32;;;;;;;8.53;5.90;;;6.00;99.90;;;6.42;nan;100991.41;4963261;28;20612;-68
2023/03/16 06:46:00;;;;;;;11.70;6.77;;;6.60;99.90;;;6.81;nan;100989.44;4972003;28;20646;-66
2023/03/16 06:48:27;;;;;;;11.33;5.90;;;7.00;99.90;;;7.12;nan;100989.53;4970951;28;20647;-65
2023/03/16 06:50:54;;;;;;;12.27;6.63;;;7.30;99.90;;;7.24;nan;100981.09;4966218;28;20662;-66
2023/03/16 06:53:21;;;;;;;8.77;6.57;;;7.40;99.90;;;7.34;nan;100982.31;4972324;28;20673;-66
2023/03/16 06:55:48;;;;;;;11.57;7.47;;;7.50;99.90;;;7.53;nan;100977.81;4977691;28;21020;-68
2023/03/16 06:58:15;;;;;;;14.97;8.40;;;7.70;99.90;;;7.86;nan;100989.88;4971496;28;20689;-67
2023/03/16 07:00:42;;;;;;;13.53;7.93;;;8.00;99.90;;;8.04;nan;100984.50;4971109;28;20751;-66
2023/03/16 07:03:09;;;;;;;12.30;7.43;;;8.20;99.90;;;7.93;nan;100986.84;4996384;23;20705;-68
2023/03/16 07:05:36;;;;;;;11.93;7.27;;;8.20;99.90;;;7.86;nan;100985.50;4983781;28;20970;-67
2023/03/16 07:08:03;;;;;;;13.40;8.07;;;8.10;99.90;;;7.95;nan;100987.59;4990073;28;20636;-68
2023/03/16 07:10:31;;;;;;;8.77;6.40;;;8.10;99.90;;;8.16;nan;100990.75;4989323;28;20700;-68
2023/03/16 07:12:58;;;;;;;11.40;6.47;;;8.30;99.90;;;8.25;nan;100983.34;4989933;28;20732;-67
2023/03/16 07:15:25;;;;;;;12.10;7.13;;;8.50;99.90;;;8.40;nan;100981.63;4979628;28;20653;-67
2023/03/16 07:17:52;;;;;;;11.10;7.13;;;8.60;99.90;;;8.54;nan;100992.91;4960879;28;21225;-68
2023/03/16 07:20:20;;;;;;;12.67;7.57;;;8.80;99.90;;;8.65;nan;100994.88;4958617;28;20647;-68
2023/03/16 07:22:49;;;;;;;11.63;7.80;;;8.80;99.90;;;8.93;nan;100978.47;4988399;28;20743;-68
2023/03/16 07:25:16;;;;;;;12.00;7.27;;;9.10;99.90;;;9.23;nan;100982.69;5005004;28;20668;-67
2023/03/16 07:27:45;;;;;;;12.43;7.80;;;9.40;99.90;;;9.88;nan;100986.41;4985104;28;20638;-67
2023/03/16 07:30:13;;;;;;;12.07;7.37;;;10.00;99.90;;;11.00;nan;100984.22;4971063;28;20625;-67
2023/03/16 07:32:41;;;;;;;15.20;9.20;;;11.00;99.90;;;11.91;nan;100996.09;4966389;28;20679;-67
2023/03/16 07:35:10;;;;;;;14.63;8.33;;;12.00;99.90;;;12.74;nan;100997.78;4971180;28;20635;-67
2023/03/16 07:37:37;;;;;;;12.57;8.80;;;12.90;99.90;;;13.40;nan;100995.28;4981034;28;20646;-68
2023/03/16 07:40:07;;;;;;;13.93;9.57;;;13.60;99.90;;;13.93;nan;100998.91;4977594;28;20631;-67
2023/03/16 07:42:35;;;;;;;14.87;9.47;;;14.20;98.30;;;14.51;nan;100995.03;4970394;28;21010;-67
2023/03/16 07:45:04;;;;;;;13.23;7.77;;;14.80;96.10;;;14.86;nan;101000.84;4965594;28;21045;-67
2023/03/16 07:47:32;;;;;;;13.80;8.00;;;15.40;93.90;;;15.48;nan;100993.69;4962110;28;20683;-67
2023/03/16 07:50:00;;;;;;;10.07;7.60;;;16.10;91.90;;;16.08;nan;100999.81;4983150;28;20701;-68
2023/03/16 07:52:27;;;;;;;11.33;7.90;;;16.70;88.90;;;16.57;nan;100999.72;4985949;28;20729;-67
2023/03/16 07:54:54;;;;;;;12.13;7.13;;;17.30;85.40;;;17.10;nan;100994.78;4977024;28;21203;-69
2023/03/16 07:57:21;;;;;;;15.10;7.90;;;17.80;81.50;;;17.50;nan;100995.38;4983408;28;20697;-67
2023/03/16 07:59:48;;;;;;;10.43;7.77;;;18.20;77.30;;;17.68;nan;100984.84;4970888;28;20626;-66
2023/03/16 08:02:18;;;;;;;10.17;7.50;;;18.50;75.20;;;17.83;nan;100978.09;4974829;28;21242;-67
2023/03/16 08:04:45;;;;;;;8.93;7.30;;;18.70;72.60;;;17.99;nan;100985.38;4992508;28;20969;-69
2023/03/16 08:07:14;;;;;;;10.63;7.70;;;18.80;71.20;;;18.21;nan;100977.81;4992452;28;21215;-67
2023/03/16 08:09:41;;;;;;;9.57;7.27;;;19.00;71.30;;;18.69;nan;100981.91;4994584;28;20626;-67
2023/03/16 08:12:10;;;;;;;8.27;7.37;;;19.50;69.40;;;19.17;nan;100976.91;4991389;28;20642;-68
2023/03/16 08:14:37;;;;;;;10.10;7.80;;;20.10;67.30;;;19.92;nan;100981.41;4989259;28;20667;-67
2023/03/16 08:17:06;;;;;;;10.30;7.37;;;20.80;65.60;;;20.50;nan;100979.53;4974227;28;21247;-67
2023/03/16 08:19:33;;;;;;;11.53;9.50;;;21.50;63.40;;;20.95;nan;100972.84;4992026;28;21079;-68
2023/03/16 08:22:00;;;;;;;14.57;9.70;;;21.90;61.50;;;21.20;nan;100988.56;4977440;28;20663;-68
2023/03/16 08:24:29;;;;;;;19.20;12.87;;;22.10;61.00;;;21.83;nan;100987.69;4970854;28;20636;-68
2023/03/16 08:26:58;;;;;;;22.53;16.50;;;22.70;59.70;;;22.47;nan;100986.44;4973898;28;20623;-67
2023/03/16 08:29:26;;;;;;;25.97;17.87;;;23.40;58.50;;;22.92;nan;100995.19;4968778;28;20640;-68
2023/03/16 08:31:56;;;;;;;23.33;16.60;;;23.90;56.70;;;;;;4969638;28;20624;-67
2023/03/16 08:34:24;;;;;;;21.30;15.27;;;24.20;55.90;;;23.65;nan;100991.75;4978328;28;20668;-67
2023/03/16 08:36:51;;;;;;;21.03;14.93;;;24.70;54.40;;;24.04;nan;100983.38;4988388;28;20665;-66
2023/03/16 08:39:19;;;;;;;20.33;14.60;;;25.10;54.10;;;24.17;nan;100973.69;4992009;28;20923;-68
2023/03/16 08:41:47;;;;;;;20.63;14.13;;;25.30;52.90;;;23.94;nan;100973.00;4989805;28;20643;-67
2023/03/16 08:44:13;;;;;;;22.27;12.87;;;25.10;53.00;;;23.48;nan;100961.81;4968197;28;20654;-67
2023/03/16 08:46:41;;;;;;;22.33;12.70;;;24.60;52.80;;;23.08;nan;100957.75;4975124;28;20647;-67
2023/03/16 08:49:08;;;;;;;15.17;11.17;;;24.10;53.40;;;23.55;nan;100954.72;4987702;28;20639;-67
2023/03/16 08:51:35;;;;;;;11.13;8.87;;;24.30;53.40;;;24.63;nan;100953.63;4973735;28;20643;-66
2023/03/16 08:54:02;;;;;;;7.83;6.90;;;25.20;51.80;;;24.19;nan;100949.53;4977585;28;20757;-66
2023/03/16 08:56:29;;;;;;;4.63;4.13;;;25.40;49.20;;;23.37;nan;100945.47;4973511;28;20635;-66
2023/03/16 08:58:57;;;;;;;4.10;3.60;;;24.40;49.80;;;22.07;nan;100947.69;4967708;28;20639;-69
2023/03/16 09:01:24;;;;;;;7.77;4.57;;;23.30;50.40;;;20.60;nan;100928.97;4973566;28;20693;-66
2023/03/16 09:03:51;;;;;;;6.30;5.20;;;21.60;52.50;;;20.36;nan;100940.41;4972793;28;20675;-68
2023/03/16 09:06:18;;;;;;;5.57;5.07;;;21.00;53.40;;;20.58;nan;100939.75;4967871;28;20619;-68
2023/03/16 09:08:46;;;;;;;6.40;5.43;;;21.20;53.40;;;20.83;nan;100936.06;4961828;28;21191;-68
2023/03/16 09:11:17;;;;;;;5.90;5.00;;;21.40;53.40;;;20.42;nan;100936.28;4975886;28;21015;-67
2023/03/16 09:13:45;;;;;;;6.20;5.30;;;21.10;53.30;;;20.50;nan;100944.22;4988124;28;20655;-67
2023/03/16 09:16:14;;;;;;;5.67;4.33;;;21.00;53.70;;;21.36;nan;100946.03;4973816;28;20638;-68
2023/03/16 09:18:42;;;;;;;5.37;4.77;;;21.80;53.00;;;22.54;nan;100950.13;4981104;28;20649;-68
2023/03/16 09:21:12;;;;;;;5.07;4.57;;;22.90;52.30;;;23.42;nan;100946.59;4961116;28;20644;-68
2023/03/16 09:23:41;;;;;;;4.90;4.50;;;23.90;50.80;;;23.63;nan;100944.00;4962304;28;21038;-65
2023/03/16 09:26:09;;;;;;;5.30;4.20;;;24.30;49.50;;;23.77;nan;100945.78;4973406;28;20623;-67
2023/03/16 09:28:37;;;;;;;4.73;4.27;;;24.50;49.10;;;23.25;nan;100938.97;4978152;28;20642;-67
2023/03/16 09:31:05;;;;;;;6.50;5.30;;;24.10;49.20;;;23.12;nan;100937.78;4992634;28;20626;-67
2023/03/16 09:33:33;;;;;;;5.80;5.03;;;23.90;49.70;;;22.15;nan;100939.66;4985727;28;21052;-65
2023/03/16 09:36:01;;;;;;;6.50;4.43;;;23.10;50.20;;;21.64;nan;100930.47;4988526;28;20881;-67
2023/03/16 09:38:29;;;;;;;7.10;5.27;;;22.30;51.40;;;20.62;nan;100919.88;4972195;28;20635;-66
2023/03/16 09:41:05;;;;;;;4.17;3.87;;;21.40;52.00;;;19.19;nan;100912.31;4973324;28;20725;-67
2023/03/16 09:43:50;;;;;;;5.43;4.00;;;20.00;53.60;;;18.50;nan;100919.50;4972574;28;20705;-67
2023/03/16 09:46:24;;;;;;;5.23;4.40;;;19.10;55.60;;;18.83;nan;100912.59;4968317;28;21374;-67
2023/03/16 09:48:53;;;;;;;5.23;4.57;;;19.20;56.10;;;18.69;nan;100916.66;4970960;28;20979;-67
2023/03/16 09:51:47;;;;;;;4.30;3.90;;;19.20;55.80;;;18.73;nan;100917.16;4987810;28;20639;-67
2023/03/16 09:54:50;;;;;;;4.33;3.67;;;19.10;56.30;;;19.51;nan;100922.19;4966370;28;20650;-66
2023/03/16 09:57:56;;;;;;;4.50;3.57;;;19.70;55.60;;;20.48;nan;100925.84;4977388;28;20639;-66
2023/03/16 10:05:00;;;;;;;4.70;4.27;;;22.00;52.80;;;23.25;nan;100915.81;4966777;28;20698;-67
2023/03/16 10:07:45;;;;;;;8.13;6.33;;;23.50;51.00;;;24.09;nan;100915.19;4966291;28;20653;-65
2023/03/16 10:11:18;;;;;;;5.10;4.70;;;24.40;49.60;;;25.06;nan;100910.81;4985192;28;20984;-63
2023/03/16 10:14:04;;;;;;;4.83;4.13;;;25.40;49.20;;;24.56;nan;100902.03;4972803;28;20693;-67
2023/03/16 10:16:53;;;;;;;5.67;4.60;;;25.20;47.70;;;25.33;nan;100897.38;4970613;28;20642;-67
2023/03/16 10:19:41;;;;;;;4.80;4.30;;;25.70;47.50;;;25.62;nan;100895.47;4973135;28;20662;-67
2023/03/16 10:22:33;;;;;;;5.53;4.60;;;26.10;47.00;;;26.02;nan;100902.53;4970916;28;20650;-64
2023/03/16 10:25:13;;;;;;;5.43;4.50;;;26.60;46.90;;;26.59;nan;100902.75;4971228;28;21200;-67
2023/03/16 10:27:44;;;;;;;6.20;4.50;;;27.30;46.30;;;26.95;nan;100901.47;4971422;28;20631;-65
2023/03/16 10:30:27;;;;;;;4.07;3.77;;;27.70;45.00;;;27.49;nan;100896.56;4977958;28;21061;-68
2023/03/16 10:33:25;;;;;;;6.10;5.50;;;28.20;45.20;;;27.61;nan;100901.03;4972613;28;20759;-67
2023/03/16 10:36:14;;;;;;;4.77;4.37;;;28.50;44.90;;;27.55;nan;100901.91;4977419;28;21175;-67
2023/03/16 10:38:56;;;;;;;5.10;4.53;;;28.30;44.80;;;26.95;nan;100905.00;4971733;28;20627;-66
2023/03/16 10:41:36;;;;;;;5.37;4.77;;;27.60;44.80;;;26.47;nan;100898.25;4984878;28;20634;-68
2023/03/16 10:44:30;;;;;;;2.87;2.67;;;26.90;45.20;;;25.02;nan;100894.34;4975743;28;21239;-66
2023/03/16 10:47:02;;;;;;;4.33;3.93;;;25.70;46.10;;;23.40;nan;100894.53;4970432;28;21066;-65
2023/03/16 10:49:40;;;;;;;3.90;3.57;;;23.70;48.10;;;21.42;nan;100871.03;4964136;28;20628;-67
2023/03/16 10:52:33;;;;;;;6.17;4.20;;;21.80;50.20;;;19.77;nan;100875.28;4969209;28;20662;-67
2023/03/16 10:55:09;;;;;;;4.73;3.40;;;20.10;52.80;;;18.89;nan;100874.97;4990062;28;21231;-66
2023/03/16 10:57:42;;;;;;;2.97;2.67;;;19.10;55.60;;;17.79;nan;100868.53;4993471;28;21054;-66